Jackie Cenac — WDG9141 — position and weather

sailwx.info

Track history (hours):
 
Tides and Currents Weather Stations Pressure Air Temp Water Temp Dewpoint Dewpoint Depression Visibility Wind Speed Wind Dir Waves Ship Positions

Jackie Cenac

Owner: Cenac Marine Services, Houma, LA. More information available from US FCC via Universal Licensing System and Coast Guard Vessel Documentation Center.

Last reported at 2018-Jul-15 22:34 UTC. Time now 2018-Jul-22 00:38 UTC.
Position N 29°36' W 090°41'.

Length 22 m; draft 3.2 m.

Type: Tug. MMSI: 367584740.

Date/timePositionNaut miles runAvg speedWind from/ knotsBaromVisibWave heightAir tempDewpointWater temp
2018-Jul-15 22:34N 29°36' W 090°41'0 5.3
2018-Jul-15 22:30N 29°36' W 090°41'2 3.4
2018-Jul-15 22:00N 29°35' W 090°43'2 4.2
2018-Jul-15 21:30N 29°34' W 090°44'65 3.9
2018-Jul-15 04:52N 29°51' W 091°57'2 4.9
2018-Jul-15 04:30N 29°50' W 091°59'3 5.4
2018-Jul-15 04:00N 29°49' W 092°02'2 4.9
2018-Jul-15 03:30N 29°48' W 092°04'2 4.9
2018-Jul-15 03:00N 29°48' W 092°07'3 5.0
2018-Jul-15 02:30N 29°47' W 092°10'2 5.0
2018-Jul-15 02:00N 29°47' W 092°12'1 1.4
2018-Jul-15 01:30N 29°47' W 092°13'1 2.4
2018-Jul-15 01:00N 29°48' W 092°14'3 5.3
2018-Jul-15 00:30N 29°49' W 092°17'2 4.1
2018-Jul-15 00:00N 29°50' W 092°19'41 4.0
2018-Jul-14 13:45N 29°56' W 093°06'1 2.6
2018-Jul-14 13:29N 29°56' W 093°07'1 2.9
2018-Jul-14 13:00N 29°56' W 093°08'2 3.2
2018-Jul-14 12:30N 29°57' W 093°10'2 4.0
2018-Jul-14 12:00N 29°58' W 093°11'2 3.6
2018-Jul-14 11:30N 29°59' W 093°13'1 2.3
2018-Jul-14 11:00N 30°00' W 093°14'0 0.1
2018-Jul-14 10:30N 30°00' W 093°14'0 0.0
2018-Jul-14 10:00N 30°00' W 093°14'1 1.8
2018-Jul-14 09:30N 30°01' W 093°14'2 3.1
2018-Jul-14 09:00N 30°02' W 093°15'1 2.8
2018-Jul-14 08:30N 30°03' W 093°16'1 2.8
2018-Jul-14 08:00N 30°05' W 093°17'1 2.4
2018-Jul-14 07:30N 30°05' W 093°18'0 0.8
2018-Jul-14 07:00N 30°06' W 093°18'1 1.5
2018-Jul-14 06:30N 30°06' W 093°18'0 0.5
2018-Jul-14 06:00N 30°06' W 093°18'0 0.0
2018-Jul-14 05:30N 30°06' W 093°18'0 0.0
2018-Jul-14 05:00N 30°06' W 093°18'0 0.0
2018-Jul-14 04:30N 30°06' W 093°18'0 0.0
2018-Jul-14 04:00N 30°06' W 093°18'0 0.0
2018-Jul-14 03:30N 30°06' W 093°18'0 0.0
2018-Jul-14 03:00N 30°06' W 093°18'0 0.0
2018-Jul-14 02:30N 30°06' W 093°18'0 0.0
2018-Jul-14 02:00N 30°06' W 093°18'0 0.0
2018-Jul-14 01:30N 30°06' W 093°18'0 0.0
2018-Jul-14 01:00N 30°06' W 093°18'0 0.0
2018-Jul-14 00:28N 30°06' W 093°18'0 0.2
2018-Jul-14 00:00N 30°06' W 093°18'0 0.2
2018-Jul-13 23:30N 30°06' W 093°18'0 0.0
2018-Jul-13 23:00N 30°06' W 093°18'0 0.0
2018-Jul-13 22:30N 30°06' W 093°18'0 0.0
2018-Jul-13 22:00N 30°06' W 093°18'0 0.0
2018-Jul-13 21:30N 30°06' W 093°18'0 0.0
2018-Jul-13 21:00N 30°06' W 093°18'0 0.0
2018-Jul-13 20:30N 30°06' W 093°18'0 0.0
2018-Jul-13 20:00N 30°06' W 093°18'0 0.0
2018-Jul-13 19:30N 30°06' W 093°18'0 0.0
2018-Jul-13 19:00N 30°06' W 093°18'0 0.0
2018-Jul-13 18:30N 30°06' W 093°18'0 0.0
2018-Jul-13 18:00N 30°06' W 093°18'0 0.0
2018-Jul-13 17:30N 30°06' W 093°18'0 0.0
2018-Jul-13 17:00N 30°06' W 093°18'0 0.0
2018-Jul-13 16:30N 30°06' W 093°18'0 0.0
2018-Jul-13 16:00N 30°06' W 093°18'0 0.0
2018-Jul-13 15:30N 30°06' W 093°18'0 0.0
2018-Jul-13 15:00N 30°06' W 093°18'0 0.0
2018-Jul-13 14:00N 30°06' W 093°18'0 0.0
2018-Jul-13 13:30N 30°06' W 093°18'0 0.0
2018-Jul-13 13:00N 30°06' W 093°18'0 0.0
2018-Jul-13 12:30N 30°06' W 093°18'0 0.0
2018-Jul-13 12:00N 30°06' W 093°18'0 0.0
2018-Jul-13 11:29N 30°06' W 093°18'0 0.0
2018-Jul-13 11:00N 30°06' W 093°18'0 0.0
2018-Jul-13 10:30N 30°06' W 093°18'0 0.0
2018-Jul-13 10:00N 30°06' W 093°18'0 0.0
2018-Jul-13 09:30N 30°06' W 093°18'0 0.0
2018-Jul-13 09:00N 30°06' W 093°18'0 0.0
2018-Jul-13 08:30N 30°06' W 093°18'0 0.0
2018-Jul-13 07:59N 30°06' W 093°18'0 0.0
2018-Jul-13 07:30N 30°06' W 093°18'0 0.0
2018-Jul-13 07:00N 30°06' W 093°18'0 0.0
2018-Jul-13 06:30N 30°06' W 093°18'0 0.0
2018-Jul-13 06:00N 30°06' W 093°18'0 0.0
2018-Jul-13 05:30N 30°06' W 093°18'0 0.0
2018-Jul-13 05:00N 30°06' W 093°18'0 0.0
2018-Jul-13 04:30N 30°06' W 093°18'0 0.0
2018-Jul-13 04:00N 30°06' W 093°18'0 0.0
2018-Jul-13 03:30N 30°06' W 093°18'0 0.0
2018-Jul-13 03:00N 30°06' W 093°18'0 0.0
2018-Jul-13 02:30N 30°06' W 093°18'0 0.0
2018-Jul-13 02:00N 30°06' W 093°18'0 0.0
2018-Jul-13 01:30N 30°06' W 093°18'0 0.0
2018-Jul-13 01:00N 30°06' W 093°18'0 0.0
2018-Jul-13 00:30N 30°06' W 093°18'0 0.0
2018-Jul-13 00:00N 30°06' W 093°18'0 0.0
2018-Jul-12 23:30N 30°06' W 093°18'0 0.0
2018-Jul-12 23:00N 30°06' W 093°18'0 0.0
2018-Jul-12 22:30N 30°06' W 093°18'0 0.0
2018-Jul-12 22:00N 30°06' W 093°18'0 0.0
2018-Jul-12 21:30N 30°06' W 093°18'0 0.0
2018-Jul-12 21:00N 30°06' W 093°18'0 0.0
2018-Jul-12 20:30N 30°06' W 093°18'0 0.0
2018-Jul-12 20:00N 30°06' W 093°18'0 0.0
2018-Jul-12 19:30N 30°06' W 093°18'0 0.0
2018-Jul-12 19:00N 30°06' W 093°18'0 0.0
2018-Jul-12 18:30N 30°06' W 093°18'0 0.0
2018-Jul-12 18:00N 30°06' W 093°18'0 0.0
2018-Jul-12 17:30N 30°06' W 093°18'0 0.0
2018-Jul-12 17:00N 30°06' W 093°18'0 0.0
2018-Jul-12 16:30N 30°06' W 093°18'0 0.0
2018-Jul-12 16:00N 30°06' W 093°18'0 0.0
2018-Jul-12 15:30N 30°06' W 093°18'0 0.0
2018-Jul-12 15:00N 30°06' W 093°18'0 0.0
2018-Jul-12 14:30N 30°06' W 093°18'0 0.0
2018-Jul-12 14:00N 30°06' W 093°18'0 0.0
2018-Jul-12 13:30N 30°06' W 093°18'0 0.0
2018-Jul-12 13:00N 30°06' W 093°18'0 0.0
2018-Jul-12 12:30N 30°06' W 093°18'0 0.0
2018-Jul-12 12:00N 30°06' W 093°18'0 0.0
2018-Jul-12 11:30N 30°06' W 093°18'0 0.0
2018-Jul-12 11:00N 30°06' W 093°18'0 0.0
2018-Jul-12 10:30N 30°06' W 093°18'0 0.0
2018-Jul-12 10:00N 30°06' W 093°18'0 0.0
2018-Jul-12 09:30N 30°06' W 093°18'0 0.0
2018-Jul-12 09:00N 30°06' W 093°18'0 0.0
2018-Jul-12 08:30N 30°06' W 093°18'0 0.0
2018-Jul-12 08:00N 30°06' W 093°18'0 0.0
2018-Jul-12 07:30N 30°06' W 093°18'0 0.0
2018-Jul-12 07:00N 30°06' W 093°18'0 0.0
2018-Jul-12 06:30N 30°06' W 093°18'0 0.0
2018-Jul-12 06:00N 30°06' W 093°18'0 0.0
2018-Jul-12 05:30N 30°06' W 093°18'0 0.0
2018-Jul-12 05:00N 30°06' W 093°18'0 0.0
2018-Jul-12 04:30N 30°06' W 093°18'0 0.0
2018-Jul-12 04:00N 30°06' W 093°18'0 0.0
2018-Jul-12 03:30N 30°06' W 093°18'0 0.0
2018-Jul-12 02:59N 30°06' W 093°18'0 0.0
2018-Jul-12 02:30N 30°06' W 093°18'0 0.0
2018-Jul-12 02:00N 30°06' W 093°18'0 0.0
2018-Jul-12 01:30N 30°06' W 093°18'0 0.0
2018-Jul-12 01:00N 30°06' W 093°18'0 0.0
2018-Jul-12 00:30N 30°06' W 093°18'0 0.0
2018-Jul-12 00:00N 30°06' W 093°18'0 0.2
2018-Jul-11 23:30N 30°06' W 093°18'0 0.2
2018-Jul-11 23:00N 30°06' W 093°18'0 0.0
2018-Jul-11 22:30N 30°06' W 093°18'0 0.0
2018-Jul-11 22:00N 30°06' W 093°18'0 0.4
2018-Jul-11 21:30N 30°06' W 093°18'0 0.0
2018-Jul-11 21:00N 30°06' W 093°18'0 0.3
2018-Jul-11 20:30N 30°06' W 093°18'0 0.6
2018-Jul-11 19:59N 30°06' W 093°19'0 0.1
2018-Jul-11 19:30N 30°06' W 093°19'0 0.0
2018-Jul-11 19:00N 30°06' W 093°19'0 0.0
2018-Jul-11 18:30N 30°06' W 093°19'1 1.2
2018-Jul-11 18:00N 30°06' W 093°19'2 4.8
2018-Jul-11 17:30N 30°08' W 093°20'4 7.1
2018-Jul-11 17:00N 30°11' W 093°18'3 5.9
2018-Jul-11 16:30N 30°13' W 093°16'0 0.1
2018-Jul-11 16:00N 30°13' W 093°16'0 0.6
2018-Jul-11 15:28N 30°14' W 093°15'0 0.5
2018-Jul-11 15:00N 30°14' W 093°15'0 0.1
2018-Jul-11 14:29N 30°14' W 093°15'0 0.0
2018-Jul-11 14:00N 30°14' W 093°15'0 0.0
2018-Jul-11 13:29N 30°14' W 093°15'0 0.0
2018-Jul-11 13:00N 30°14' W 093°15'0 0.0
2018-Jul-11 12:30N 30°14' W 093°15'0 0.0
2018-Jul-11 12:00N 30°14' W 093°15'0 0.0
2018-Jul-11 11:30N 30°14' W 093°15'0 0.0
2018-Jul-11 11:00N 30°14' W 093°15'0 0.0
2018-Jul-11 10:30N 30°14' W 093°15'0 0.0
2018-Jul-11 10:00N 30°14' W 093°15'0 0.0
2018-Jul-11 09:30N 30°14' W 093°15'0 0.0
2018-Jul-11 09:00N 30°14' W 093°15'0 0.0
2018-Jul-11 08:30N 30°14' W 093°15'0 0.0
2018-Jul-11 08:00N 30°14' W 093°15'0 0.0
2018-Jul-11 07:30N 30°14' W 093°15'0 0.0
2018-Jul-11 06:59N 30°14' W 093°15'0 0.0
2018-Jul-11 06:30N 30°14' W 093°15'0 0.0
2018-Jul-11 06:00N 30°14' W 093°15'0 0.0
2018-Jul-11 05:30N 30°14' W 093°15'0 0.0
2018-Jul-11 05:00N 30°14' W 093°15'0 0.0
2018-Jul-11 04:30N 30°14' W 093°15'0 0.0
2018-Jul-11 04:00N 30°14' W 093°15'0 0.0
2018-Jul-11 03:30N 30°14' W 093°15'0 0.0
2018-Jul-11 03:00N 30°14' W 093°15'0 0.0
2018-Jul-11 02:30N 30°14' W 093°15'0 0.0
2018-Jul-11 02:00N 30°14' W 093°15'0 0.0
2018-Jul-11 01:29N 30°14' W 093°15'0 0.0
2018-Jul-11 01:00N 30°14' W 093°15'0 0.0
2018-Jul-11 00:30N 30°14' W 093°15'0 0.0
2018-Jul-11 00:00N 30°14' W 093°15'0 0.0
2018-Jul-10 23:30N 30°14' W 093°15'0 0.0
2018-Jul-10 23:00N 30°14' W 093°15'0 0.0
2018-Jul-10 22:30N 30°14' W 093°15'0 0.0
2018-Jul-10 22:00N 30°14' W 093°15'0 0.0
2018-Jul-10 21:30N 30°14' W 093°15'0 0.0
2018-Jul-10 21:00N 30°14' W 093°15'0 0.0
2018-Jul-10 20:30N 30°14' W 093°15'0 0.0
2018-Jul-10 19:57N 30°14' W 093°15'0 0.0
2018-Jul-10 19:30N 30°14' W 093°15'0 0.0
2018-Jul-10 19:00N 30°14' W 093°15'0 0.0
2018-Jul-10 18:30N 30°14' W 093°15'0 0.0
2018-Jul-10 18:00N 30°14' W 093°15'0 0.0
2018-Jul-10 17:30N 30°14' W 093°15'0 0.0
2018-Jul-10 17:00N 30°14' W 093°15'0 0.0
2018-Jul-10 16:30N 30°14' W 093°15'0 0.0
2018-Jul-10 16:00N 30°14' W 093°15'0 0.0
2018-Jul-10 15:30N 30°14' W 093°15'0 0.0
2018-Jul-10 15:00N 30°14' W 093°15'0 0.0
2018-Jul-10 14:30N 30°14' W 093°15'0 0.0
2018-Jul-10 14:00N 30°14' W 093°15'0 0.0
2018-Jul-10 13:30N 30°14' W 093°15'0 0.0
2018-Jul-10 13:00N 30°14' W 093°15'0 0.0
2018-Jul-10 12:26N 30°14' W 093°15'0 0.0
2018-Jul-10 12:00N 30°14' W 093°15'0 0.0
2018-Jul-10 11:30N 30°14' W 093°15'0 0.0
2018-Jul-10 11:00N 30°14' W 093°15'0 0.0
2018-Jul-10 10:30N 30°14' W 093°15'0 0.0
2018-Jul-10 10:00N 30°14' W 093°15'0 0.0
2018-Jul-10 09:30N 30°14' W 093°15'0 0.0
2018-Jul-10 09:00N 30°14' W 093°15'0 0.0
2018-Jul-10 08:30N 30°14' W 093°15'0 0.0
2018-Jul-10 08:00N 30°14' W 093°15'0 0.0
2018-Jul-10 07:30N 30°14' W 093°15'0 0.1
2018-Jul-10 07:00N 30°14' W 093°15'1 1.2
2018-Jul-10 06:30N 30°13' W 093°16'1 1.1
2018-Jul-10 06:00N 30°13' W 093°16'4 7.3
2018-Jul-10 05:30N 30°11' W 093°19'3 6.5
2018-Jul-10 05:00N 30°08' W 093°20'2 3.5
2018-Jul-10 04:30N 30°06' W 093°19'1 3.0
2018-Jul-10 04:00N 30°05' W 093°17'1 2.0
2018-Jul-10 03:30N 30°04' W 093°16'0 0.1
2018-Jul-10 03:01N 30°05' W 093°16'0 0.0
2018-Jul-10 02:30N 30°05' W 093°16'0 0.0
2018-Jul-10 02:00N 30°05' W 093°16'0 0.0
2018-Jul-10 01:30N 30°05' W 093°16'0 0.0
2018-Jul-10 01:00N 30°05' W 093°16'0 0.0
2018-Jul-10 00:28N 30°05' W 093°16'0 0.0
2018-Jul-10 00:00N 30°05' W 093°16'0 0.0
2018-Jul-09 23:30N 30°05' W 093°16'0 0.0
2018-Jul-09 23:00N 30°05' W 093°16'0 0.0
2018-Jul-09 22:30N 30°05' W 093°16'0 0.0
2018-Jul-09 21:58N 30°05' W 093°16'0 0.0
2018-Jul-09 21:30N 30°05' W 093°16'0 0.0
2018-Jul-09 21:01N 30°05' W 093°16'0 0.0
2018-Jul-09 20:30N 30°05' W 093°16'0 0.0
2018-Jul-09 20:00N 30°05' W 093°16'0 0.0
2018-Jul-09 19:30N 30°05' W 093°16'0 0.0
2018-Jul-09 19:00N 30°05' W 093°16'0 0.0
2018-Jul-09 18:30N 30°05' W 093°16'0 0.0
2018-Jul-09 18:00N 30°05' W 093°16'0 0.0
2018-Jul-09 17:30N 30°05' W 093°16'0 0.2
2018-Jul-09 17:00N 30°04' W 093°16'1 2.2
2018-Jul-09 16:30N 30°03' W 093°16'1 1.9
2018-Jul-09 16:00N 30°03' W 093°16'1 2.4
2018-Jul-09 15:30N 30°02' W 093°15'0 0.1
2018-Jul-09 15:00N 30°02' W 093°15'0 0.0
2018-Jul-09 14:29N 30°02' W 093°15'0 0.0
2018-Jul-09 14:00N 30°02' W 093°15'0 0.0
2018-Jul-09 13:30N 30°02' W 093°15'0 0.0
2018-Jul-09 13:00N 30°02' W 093°15'0 0.0
2018-Jul-09 12:30N 30°02' W 093°15'1 1.8
2018-Jul-09 12:00N 30°01' W 093°14'2 3.9
2018-Jul-09 11:30N 29°59' W 093°13'1 1.6
2018-Jul-09 10:58N 29°59' W 093°12'0 0.0
2018-Jul-09 10:28N 29°59' W 093°12'0 0.0
2018-Jul-09 10:00N 29°59' W 093°12'1 2.6
2018-Jul-09 09:30N 29°58' W 093°11'1 0.9
2018-Jul-09 08:38N 29°57' W 093°11'0 0.0
2018-Jul-09 07:21N 29°57' W 093°11'0 0.0
2018-Jul-09 06:28N 29°57' W 093°11'0 0.1
2018-Jul-09 06:00N 29°57' W 093°11'0 0.1
2018-Jul-09 05:30N 29°57' W 093°11'0 0.0
2018-Jul-09 05:00N 29°57' W 093°11'0 0.0
2018-Jul-09 04:30N 29°57' W 093°11'0 0.0
2018-Jul-09 04:00N 29°57' W 093°11'0 0.0
2018-Jul-09 03:30N 29°57' W 093°11'0 0.0
2018-Jul-09 03:00N 29°57' W 093°11'0 0.0
2018-Jul-09 02:30N 29°57' W 093°11'0 0.1
2018-Jul-09 02:00N 29°57' W 093°11'0 0.0
2018-Jul-09 01:30N 29°57' W 093°11'0 0.0
2018-Jul-09 01:00N 29°57' W 093°11'0 0.0
2018-Jul-09 00:30N 29°57' W 093°11'0 0.0
2018-Jul-09 00:00N 29°57' W 093°11'0 0.0
2018-Jul-08 23:30N 29°57' W 093°11'0 0.0
2018-Jul-08 23:00N 29°57' W 093°11'0 0.0
2018-Jul-08 22:30N 29°57' W 093°11'0 0.0
2018-Jul-08 22:00N 29°57' W 093°11'0 0.0
2018-Jul-08 21:24N 29°57' W 093°11'0 0.0
2018-Jul-08 21:00N 29°57' W 093°11'1 2.2
2018-Jul-08 20:30N 29°56' W 093°10'1 0.7
2018-Jul-08 19:09N 29°56' W 093°09'41 0.9
2018-Jul-06 19:33N 29°51' W 092°22'0 4.8
2018-Jul-06 19:30N 29°51' W 092°21'2 4.9
2018-Jul-06 19:00N 29°50' W 092°19'2 4.5
2018-Jul-06 18:30N 29°49' W 092°17'3 5.4
2018-Jul-06 18:00N 29°48' W 092°14'2 3.1
2018-Jul-06 17:30N 29°47' W 092°12'1 1.4
2018-Jul-06 17:00N 29°47' W 092°12'0 0.0
2018-Jul-06 16:30N 29°47' W 092°12'1 1.8
2018-Jul-06 16:00N 29°47' W 092°11'3 5.3
2018-Jul-06 15:30N 29°47' W 092°08'3 5.0
2018-Jul-06 14:54N 29°48' W 092°04'2 5.0
2018-Jul-06 14:29N 29°49' W 092°02'64 4.2
2018-Jul-05 23:18N 29°32' W 090°51'2 6.2
2018-Jul-05 22:59N 29°32' W 090°49'  
Track history (hours):
 
Tides and Currents Weather Stations Pressure Air Temp Water Temp Dewpoint Dewpoint Depression Visibility Wind Speed Wind Dir Waves Ship Positions

Jackie Cenac

Owner: Cenac Marine Services, Houma, LA. More information available from US FCC via Universal Licensing System and Coast Guard Vessel Documentation Center.

Last reported at 2018-Jul-15 22:34 UTC. Time now 2018-Jul-22 00:38 UTC.
Position N 29°36' W 090°41'.

Length 22 m; draft 3.2 m.

Type: Tug. MMSI: 367584740.

Date/timePositionNaut miles runAvg speedWind from/ knotsBaromVisibWave heightAir tempDewpointWater temp
2018-Jul-15 22:34N 29°36' W 090°41'0 5.3
2018-Jul-15 22:30N 29°36' W 090°41'2 3.4
2018-Jul-15 22:00N 29°35' W 090°43'2 4.2
2018-Jul-15 21:30N 29°34' W 090°44'65 3.9
2018-Jul-15 04:52N 29°51' W 091°57'2 4.9
2018-Jul-15 04:30N 29°50' W 091°59'3 5.4
2018-Jul-15 04:00N 29°49' W 092°02'2 4.9
2018-Jul-15 03:30N 29°48' W 092°04'2 4.9
2018-Jul-15 03:00N 29°48' W 092°07'3 5.0
2018-Jul-15 02:30N 29°47' W 092°10'2 5.0
2018-Jul-15 02:00N 29°47' W 092°12'1 1.4
2018-Jul-15 01:30N 29°47' W 092°13'1 2.4
2018-Jul-15 01:00N 29°48' W 092°14'3 5.3
2018-Jul-15 00:30N 29°49' W 092°17'2 4.1
2018-Jul-15 00:00N 29°50' W 092°19'41 4.0
2018-Jul-14 13:45N 29°56' W 093°06'1 2.6
2018-Jul-14 13:29N 29°56' W 093°07'1 2.9
2018-Jul-14 13:00N 29°56' W 093°08'2 3.2
2018-Jul-14 12:30N 29°57' W 093°10'2 4.0
2018-Jul-14 12:00N 29°58' W 093°11'2 3.6
2018-Jul-14 11:30N 29°59' W 093°13'1 2.3
2018-Jul-14 11:00N 30°00' W 093°14'0 0.1
2018-Jul-14 10:30N 30°00' W 093°14'0 0.0
2018-Jul-14 10:00N 30°00' W 093°14'1 1.8
2018-Jul-14 09:30N 30°01' W 093°14'2 3.1
2018-Jul-14 09:00N 30°02' W 093°15'1 2.8
2018-Jul-14 08:30N 30°03' W 093°16'1 2.8
2018-Jul-14 08:00N 30°05' W 093°17'1 2.4
2018-Jul-14 07:30N 30°05' W 093°18'0 0.8
2018-Jul-14 07:00N 30°06' W 093°18'1 1.5
2018-Jul-14 06:30N 30°06' W 093°18'0 0.5
2018-Jul-14 06:00N 30°06' W 093°18'0 0.0
2018-Jul-14 05:30N 30°06' W 093°18'0 0.0
2018-Jul-14 05:00N 30°06' W 093°18'0 0.0
2018-Jul-14 04:30N 30°06' W 093°18'0 0.0
2018-Jul-14 04:00N 30°06' W 093°18'0 0.0
2018-Jul-14 03:30N 30°06' W 093°18'0 0.0
2018-Jul-14 03:00N 30°06' W 093°18'0 0.0
2018-Jul-14 02:30N 30°06' W 093°18'0 0.0
2018-Jul-14 02:00N 30°06' W 093°18'0 0.0
2018-Jul-14 01:30N 30°06' W 093°18'0 0.0
2018-Jul-14 01:00N 30°06' W 093°18'0 0.0
2018-Jul-14 00:28N 30°06' W 093°18'0 0.2
2018-Jul-14 00:00N 30°06' W 093°18'0 0.2
2018-Jul-13 23:30N 30°06' W 093°18'0 0.0
2018-Jul-13 23:00N 30°06' W 093°18'0 0.0
2018-Jul-13 22:30N 30°06' W 093°18'0 0.0
2018-Jul-13 22:00N 30°06' W 093°18'0 0.0
2018-Jul-13 21:30N 30°06' W 093°18'0 0.0
2018-Jul-13 21:00N 30°06' W 093°18'0 0.0
2018-Jul-13 20:30N 30°06' W 093°18'0 0.0
2018-Jul-13 20:00N 30°06' W 093°18'0 0.0
2018-Jul-13 19:30N 30°06' W 093°18'0 0.0
2018-Jul-13 19:00N 30°06' W 093°18'0 0.0
2018-Jul-13 18:30N 30°06' W 093°18'0 0.0
2018-Jul-13 18:00N 30°06' W 093°18'0 0.0
2018-Jul-13 17:30N 30°06' W 093°18'0 0.0
2018-Jul-13 17:00N 30°06' W 093°18'0 0.0
2018-Jul-13 16:30N 30°06' W 093°18'0 0.0
2018-Jul-13 16:00N 30°06' W 093°18'0 0.0
2018-Jul-13 15:30N 30°06' W 093°18'0 0.0
2018-Jul-13 15:00N 30°06' W 093°18'0 0.0
2018-Jul-13 14:00N 30°06' W 093°18'0 0.0
2018-Jul-13 13:30N 30°06' W 093°18'0 0.0
2018-Jul-13 13:00N 30°06' W 093°18'0 0.0
2018-Jul-13 12:30N 30°06' W 093°18'0 0.0
2018-Jul-13 12:00N 30°06' W 093°18'0 0.0
2018-Jul-13 11:29N 30°06' W 093°18'0 0.0
2018-Jul-13 11:00N 30°06' W 093°18'0 0.0
2018-Jul-13 10:30N 30°06' W 093°18'0 0.0
2018-Jul-13 10:00N 30°06' W 093°18'0 0.0
2018-Jul-13 09:30N 30°06' W 093°18'0 0.0
2018-Jul-13 09:00N 30°06' W 093°18'0 0.0
2018-Jul-13 08:30N 30°06' W 093°18'0 0.0
2018-Jul-13 07:59N 30°06' W 093°18'0 0.0
2018-Jul-13 07:30N 30°06' W 093°18'0 0.0
2018-Jul-13 07:00N 30°06' W 093°18'0 0.0
2018-Jul-13 06:30N 30°06' W 093°18'0 0.0
2018-Jul-13 06:00N 30°06' W 093°18'0 0.0
2018-Jul-13 05:30N 30°06' W 093°18'0 0.0
2018-Jul-13 05:00N 30°06' W 093°18'0 0.0
2018-Jul-13 04:30N 30°06' W 093°18'0 0.0
2018-Jul-13 04:00N 30°06' W 093°18'0 0.0
2018-Jul-13 03:30N 30°06' W 093°18'0 0.0
2018-Jul-13 03:00N 30°06' W 093°18'0 0.0
2018-Jul-13 02:30N 30°06' W 093°18'0 0.0
2018-Jul-13 02:00N 30°06' W 093°18'0 0.0
2018-Jul-13 01:30N 30°06' W 093°18'0 0.0
2018-Jul-13 01:00N 30°06' W 093°18'0 0.0
2018-Jul-13 00:30N 30°06' W 093°18'0 0.0
2018-Jul-13 00:00N 30°06' W 093°18'0 0.0
2018-Jul-12 23:30N 30°06' W 093°18'0 0.0
2018-Jul-12 23:00N 30°06' W 093°18'0 0.0
2018-Jul-12 22:30N 30°06' W 093°18'0 0.0
2018-Jul-12 22:00N 30°06' W 093°18'0 0.0
2018-Jul-12 21:30N 30°06' W 093°18'0 0.0
2018-Jul-12 21:00N 30°06' W 093°18'0 0.0
2018-Jul-12 20:30N 30°06' W 093°18'0 0.0
2018-Jul-12 20:00N 30°06' W 093°18'0 0.0
2018-Jul-12 19:30N 30°06' W 093°18'0 0.0
2018-Jul-12 19:00N 30°06' W 093°18'0 0.0
2018-Jul-12 18:30N 30°06' W 093°18'0 0.0
2018-Jul-12 18:00N 30°06' W 093°18'0 0.0
2018-Jul-12 17:30N 30°06' W 093°18'0 0.0
2018-Jul-12 17:00N 30°06' W 093°18'0 0.0
2018-Jul-12 16:30N 30°06' W 093°18'0 0.0
2018-Jul-12 16:00N 30°06' W 093°18'0 0.0
2018-Jul-12 15:30N 30°06' W 093°18'0 0.0
2018-Jul-12 15:00N 30°06' W 093°18'0 0.0
2018-Jul-12 14:30N 30°06' W 093°18'0 0.0
2018-Jul-12 14:00N 30°06' W 093°18'0 0.0
2018-Jul-12 13:30N 30°06' W 093°18'0 0.0
2018-Jul-12 13:00N 30°06' W 093°18'0 0.0
2018-Jul-12 12:30N 30°06' W 093°18'0 0.0
2018-Jul-12 12:00N 30°06' W 093°18'0 0.0
2018-Jul-12 11:30N 30°06' W 093°18'0 0.0
2018-Jul-12 11:00N 30°06' W 093°18'0 0.0
2018-Jul-12 10:30N 30°06' W 093°18'0 0.0
2018-Jul-12 10:00N 30°06' W 093°18'0 0.0
2018-Jul-12 09:30N 30°06' W 093°18'0 0.0
2018-Jul-12 09:00N 30°06' W 093°18'0 0.0
2018-Jul-12 08:30N 30°06' W 093°18'0 0.0
2018-Jul-12 08:00N 30°06' W 093°18'0 0.0
2018-Jul-12 07:30N 30°06' W 093°18'0 0.0
2018-Jul-12 07:00N 30°06' W 093°18'0 0.0
2018-Jul-12 06:30N 30°06' W 093°18'0 0.0
2018-Jul-12 06:00N 30°06' W 093°18'0 0.0
2018-Jul-12 05:30N 30°06' W 093°18'0 0.0
2018-Jul-12 05:00N 30°06' W 093°18'0 0.0
2018-Jul-12 04:30N 30°06' W 093°18'0 0.0
2018-Jul-12 04:00N 30°06' W 093°18'0 0.0
2018-Jul-12 03:30N 30°06' W 093°18'0 0.0
2018-Jul-12 02:59N 30°06' W 093°18'0 0.0
2018-Jul-12 02:30N 30°06' W 093°18'0 0.0
2018-Jul-12 02:00N 30°06' W 093°18'0 0.0
2018-Jul-12 01:30N 30°06' W 093°18'0 0.0
2018-Jul-12 01:00N 30°06' W 093°18'0 0.0
2018-Jul-12 00:30N 30°06' W 093°18'0 0.0
2018-Jul-12 00:00N 30°06' W 093°18'0 0.2
2018-Jul-11 23:30N 30°06' W 093°18'0 0.2
2018-Jul-11 23:00N 30°06' W 093°18'0 0.0
2018-Jul-11 22:30N 30°06' W 093°18'0 0.0
2018-Jul-11 22:00N 30°06' W 093°18'0 0.4
2018-Jul-11 21:30N 30°06' W 093°18'0 0.0
2018-Jul-11 21:00N 30°06' W 093°18'0 0.3
2018-Jul-11 20:30N 30°06' W 093°18'0 0.6
2018-Jul-11 19:59N 30°06' W 093°19'0 0.1
2018-Jul-11 19:30N 30°06' W 093°19'0 0.0
2018-Jul-11 19:00N 30°06' W 093°19'0 0.0
2018-Jul-11 18:30N 30°06' W 093°19'1 1.2
2018-Jul-11 18:00N 30°06' W 093°19'2 4.8
2018-Jul-11 17:30N 30°08' W 093°20'4 7.1
2018-Jul-11 17:00N 30°11' W 093°18'3 5.9
2018-Jul-11 16:30N 30°13' W 093°16'0 0.1
2018-Jul-11 16:00N 30°13' W 093°16'0 0.6
2018-Jul-11 15:28N 30°14' W 093°15'0 0.5
2018-Jul-11 15:00N 30°14' W 093°15'0 0.1
2018-Jul-11 14:29N 30°14' W 093°15'0 0.0
2018-Jul-11 14:00N 30°14' W 093°15'0 0.0
2018-Jul-11 13:29N 30°14' W 093°15'0 0.0
2018-Jul-11 13:00N 30°14' W 093°15'0 0.0
2018-Jul-11 12:30N 30°14' W 093°15'0 0.0
2018-Jul-11 12:00N 30°14' W 093°15'0 0.0
2018-Jul-11 11:30N 30°14' W 093°15'0 0.0
2018-Jul-11 11:00N 30°14' W 093°15'0 0.0
2018-Jul-11 10:30N 30°14' W 093°15'0 0.0
2018-Jul-11 10:00N 30°14' W 093°15'0 0.0
2018-Jul-11 09:30N 30°14' W 093°15'0 0.0
2018-Jul-11 09:00N 30°14' W 093°15'0 0.0
2018-Jul-11 08:30N 30°14' W 093°15'0 0.0
2018-Jul-11 08:00N 30°14' W 093°15'0 0.0
2018-Jul-11 07:30N 30°14' W 093°15'0 0.0
2018-Jul-11 06:59N 30°14' W 093°15'0 0.0
2018-Jul-11 06:30N 30°14' W 093°15'0 0.0
2018-Jul-11 06:00N 30°14' W 093°15'0 0.0
2018-Jul-11 05:30N 30°14' W 093°15'0 0.0
2018-Jul-11 05:00N 30°14' W 093°15'0 0.0
2018-Jul-11 04:30N 30°14' W 093°15'0 0.0
2018-Jul-11 04:00N 30°14' W 093°15'0 0.0
2018-Jul-11 03:30N 30°14' W 093°15'0 0.0
2018-Jul-11 03:00N 30°14' W 093°15'0 0.0
2018-Jul-11 02:30N 30°14' W 093°15'0 0.0
2018-Jul-11 02:00N 30°14' W 093°15'0 0.0
2018-Jul-11 01:29N 30°14' W 093°15'0 0.0
2018-Jul-11 01:00N 30°14' W 093°15'0 0.0
2018-Jul-11 00:30N 30°14' W 093°15'0 0.0
2018-Jul-11 00:00N 30°14' W 093°15'0 0.0
2018-Jul-10 23:30N 30°14' W 093°15'0 0.0
2018-Jul-10 23:00N 30°14' W 093°15'0 0.0
2018-Jul-10 22:30N 30°14' W 093°15'0 0.0
2018-Jul-10 22:00N 30°14' W 093°15'0 0.0
2018-Jul-10 21:30N 30°14' W 093°15'0 0.0
2018-Jul-10 21:00N 30°14' W 093°15'0 0.0
2018-Jul-10 20:30N 30°14' W 093°15'0 0.0
2018-Jul-10 19:57N 30°14' W 093°15'0 0.0
2018-Jul-10 19:30N 30°14' W 093°15'0 0.0
2018-Jul-10 19:00N 30°14' W 093°15'0 0.0
2018-Jul-10 18:30N 30°14' W 093°15'0 0.0
2018-Jul-10 18:00N 30°14' W 093°15'0 0.0
2018-Jul-10 17:30N 30°14' W 093°15'0 0.0
2018-Jul-10 17:00N 30°14' W 093°15'0 0.0
2018-Jul-10 16:30N 30°14' W 093°15'0 0.0
2018-Jul-10 16:00N 30°14' W 093°15'0 0.0
2018-Jul-10 15:30N 30°14' W 093°15'0 0.0
2018-Jul-10 15:00N 30°14' W 093°15'0 0.0
2018-Jul-10 14:30N 30°14' W 093°15'0 0.0
2018-Jul-10 14:00N 30°14' W 093°15'0 0.0
2018-Jul-10 13:30N 30°14' W 093°15'0 0.0
2018-Jul-10 13:00N 30°14' W 093°15'0 0.0
2018-Jul-10 12:26N 30°14' W 093°15'0 0.0
2018-Jul-10 12:00N 30°14' W 093°15'0 0.0
2018-Jul-10 11:30N 30°14' W 093°15'0 0.0
2018-Jul-10 11:00N 30°14' W 093°15'0 0.0
2018-Jul-10 10:30N 30°14' W 093°15'0 0.0
2018-Jul-10 10:00N 30°14' W 093°15'0 0.0
2018-Jul-10 09:30N 30°14' W 093°15'0 0.0
2018-Jul-10 09:00N 30°14' W 093°15'0 0.0
2018-Jul-10 08:30N 30°14' W 093°15'0 0.0
2018-Jul-10 08:00N 30°14' W 093°15'0 0.0
2018-Jul-10 07:30N 30°14' W 093°15'0 0.1
2018-Jul-10 07:00N 30°14' W 093°15'1 1.2
2018-Jul-10 06:30N 30°13' W 093°16'1 1.1
2018-Jul-10 06:00N 30°13' W 093°16'4 7.3
2018-Jul-10 05:30N 30°11' W 093°19'3 6.5
2018-Jul-10 05:00N 30°08' W 093°20'2 3.5
2018-Jul-10 04:30N 30°06' W 093°19'1 3.0
2018-Jul-10 04:00N 30°05' W 093°17'1 2.0
2018-Jul-10 03:30N 30°04' W 093°16'0 0.1
2018-Jul-10 03:01N 30°05' W 093°16'0 0.0
2018-Jul-10 02:30N 30°05' W 093°16'0 0.0
2018-Jul-10 02:00N 30°05' W 093°16'0 0.0
2018-Jul-10 01:30N 30°05' W 093°16'0 0.0
2018-Jul-10 01:00N 30°05' W 093°16'0 0.0
2018-Jul-10 00:28N 30°05' W 093°16'0 0.0
2018-Jul-10 00:00N 30°05' W 093°16'0 0.0
2018-Jul-09 23:30N 30°05' W 093°16'0 0.0
2018-Jul-09 23:00N 30°05' W 093°16'0 0.0
2018-Jul-09 22:30N 30°05' W 093°16'0 0.0
2018-Jul-09 21:58N 30°05' W 093°16'0 0.0
2018-Jul-09 21:30N 30°05' W 093°16'0 0.0
2018-Jul-09 21:01N 30°05' W 093°16'0 0.0
2018-Jul-09 20:30N 30°05' W 093°16'0 0.0
2018-Jul-09 20:00N 30°05' W 093°16'0 0.0
2018-Jul-09 19:30N 30°05' W 093°16'0 0.0
2018-Jul-09 19:00N 30°05' W 093°16'0 0.0
2018-Jul-09 18:30N 30°05' W 093°16'0 0.0
2018-Jul-09 18:00N 30°05' W 093°16'0 0.0
2018-Jul-09 17:30N 30°05' W 093°16'0 0.2
2018-Jul-09 17:00N 30°04' W 093°16'1 2.2
2018-Jul-09 16:30N 30°03' W 093°16'1 1.9
2018-Jul-09 16:00N 30°03' W 093°16'1 2.4
2018-Jul-09 15:30N 30°02' W 093°15'0 0.1
2018-Jul-09 15:00N 30°02' W 093°15'0 0.0
2018-Jul-09 14:29N 30°02' W 093°15'0 0.0
2018-Jul-09 14:00N 30°02' W 093°15'0 0.0
2018-Jul-09 13:30N 30°02' W 093°15'0 0.0
2018-Jul-09 13:00N 30°02' W 093°15'0 0.0
2018-Jul-09 12:30N 30°02' W 093°15'1 1.8
2018-Jul-09 12:00N 30°01' W 093°14'2 3.9
2018-Jul-09 11:30N 29°59' W 093°13'1 1.6
2018-Jul-09 10:58N 29°59' W 093°12'0 0.0
2018-Jul-09 10:28N 29°59' W 093°12'0 0.0
2018-Jul-09 10:00N 29°59' W 093°12'1 2.6
2018-Jul-09 09:30N 29°58' W 093°11'1 0.9
2018-Jul-09 08:38N 29°57' W 093°11'0 0.0
2018-Jul-09 07:21N 29°57' W 093°11'0 0.0
2018-Jul-09 06:28N 29°57' W 093°11'0 0.1
2018-Jul-09 06:00N 29°57' W 093°11'0 0.1
2018-Jul-09 05:30N 29°57' W 093°11'0 0.0
2018-Jul-09 05:00N 29°57' W 093°11'0 0.0
2018-Jul-09 04:30N 29°57' W 093°11'0 0.0
2018-Jul-09 04:00N 29°57' W 093°11'0 0.0
2018-Jul-09 03:30N 29°57' W 093°11'0 0.0
2018-Jul-09 03:00N 29°57' W 093°11'0 0.0
2018-Jul-09 02:30N 29°57' W 093°11'0 0.1
2018-Jul-09 02:00N 29°57' W 093°11'0 0.0
2018-Jul-09 01:30N 29°57' W 093°11'0 0.0
2018-Jul-09 01:00N 29°57' W 093°11'0 0.0
2018-Jul-09 00:30N 29°57' W 093°11'0 0.0
2018-Jul-09 00:00N 29°57' W 093°11'0 0.0
2018-Jul-08 23:30N 29°57' W 093°11'0 0.0
2018-Jul-08 23:00N 29°57' W 093°11'0 0.0
2018-Jul-08 22:30N 29°57' W 093°11'0 0.0
2018-Jul-08 22:00N 29°57' W 093°11'0 0.0
2018-Jul-08 21:24N 29°57' W 093°11'0 0.0
2018-Jul-08 21:00N 29°57' W 093°11'1 2.2
2018-Jul-08 20:30N 29°56' W 093°10'1 0.7
2018-Jul-08 19:09N 29°56' W 093°09'41 0.9
2018-Jul-06 19:33N 29°51' W 092°22'0 4.8
2018-Jul-06 19:30N 29°51' W 092°21'2 4.9
2018-Jul-06 19:00N 29°50' W 092°19'2 4.5
2018-Jul-06 18:30N 29°49' W 092°17'3 5.4
2018-Jul-06 18:00N 29°48' W 092°14'2 3.1
2018-Jul-06 17:30N 29°47' W 092°12'1 1.4
2018-Jul-06 17:00N 29°47' W 092°12'0 0.0
2018-Jul-06 16:30N 29°47' W 092°12'1 1.8
2018-Jul-06 16:00N 29°47' W 092°11'3 5.3
2018-Jul-06 15:30N 29°47' W 092°08'3 5.0
2018-Jul-06 14:54N 29°48' W 092°04'2 5.0
2018-Jul-06 14:29N 29°49' W 092°02'64 4.2
2018-Jul-05 23:18N 29°32' W 090°51'2 6.2
2018-Jul-05 22:59N 29°32' W 090°49'  

Dump ship's entire track history